sensor_id;sensor_type;location;lat;lon;timestamp;P1;durP1;ratioP1;P2;durP2;ratioP2
40951;SDS011;26682;51.660;19.338;2024-03-22T00:02:40;40.13;;;29.30;;
40951;SDS011;26682;51.660;19.338;2024-03-22T00:05:21;41.70;;;29.63;;
40951;SDS011;26682;51.660;19.338;2024-03-22T00:08:03;43.47;;;30.10;;
40951;SDS011;26682;51.660;19.338;2024-03-22T00:10:44;42.03;;;30.58;;
40951;SDS011;26682;51.660;19.338;2024-03-22T00:13:26;43.10;;;29.88;;
40951;SDS011;26682;51.660;19.338;2024-03-22T00:16:07;47.58;;;32.33;;
40951;SDS011;26682;51.660;19.338;2024-03-22T00:18:48;42.85;;;31.13;;
40951;SDS011;26682;51.660;19.338;2024-03-22T00:21:29;44.25;;;31.65;;
40951;SDS011;26682;51.660;19.338;2024-03-22T00:24:11;48.55;;;32.58;;
40951;SDS011;26682;51.660;19.338;2024-03-22T00:26:53;46.08;;;32.42;;
40951;SDS011;26682;51.660;19.338;2024-03-22T00:29:34;45.30;;;33.10;;
40951;SDS011;26682;51.660;19.338;2024-03-22T00:32:15;49.40;;;35.10;;
40951;SDS011;26682;51.660;19.338;2024-03-22T00:34:57;48.50;;;34.40;;
40951;SDS011;26682;51.660;19.338;2024-03-22T00:37:38;48.58;;;35.13;;
40951;SDS011;26682;51.660;19.338;2024-03-22T00:40:19;47.70;;;34.50;;
40951;SDS011;26682;51.660;19.338;2024-03-22T00:43:01;50.63;;;34.72;;
40951;SDS011;26682;51.660;19.338;2024-03-22T00:45:42;53.33;;;36.65;;
40951;SDS011;26682;51.660;19.338;2024-03-22T00:48:24;49.05;;;35.50;;
40951;SDS011;26682;51.660;19.338;2024-03-22T00:51:05;48.67;;;34.75;;
40951;SDS011;26682;51.660;19.338;2024-03-22T00:53:47;49.08;;;35.35;;
40951;SDS011;26682;51.660;19.338;2024-03-22T00:56:28;54.95;;;37.03;;
40951;SDS011;26682;51.660;19.338;2024-03-22T00:59:09;49.53;;;36.42;;
40951;SDS011;26682;51.660;19.338;2024-03-22T01:01:50;52.25;;;35.92;;
40951;SDS011;26682;51.660;19.338;2024-03-22T01:04:31;51.22;;;36.03;;
40951;SDS011;26682;51.660;19.338;2024-03-22T01:07:14;53.40;;;36.22;;
40951;SDS011;26682;51.660;19.338;2024-03-22T01:09:55;48.13;;;36.05;;
40951;SDS011;26682;51.660;19.338;2024-03-22T01:12:37;52.03;;;36.05;;
40951;SDS011;26682;51.660;19.338;2024-03-22T01:15:19;49.78;;;36.13;;
40951;SDS011;26682;51.660;19.338;2024-03-22T01:18:00;51.85;;;36.75;;
40951;SDS011;26682;51.660;19.338;2024-03-22T01:20:42;48.15;;;36.60;;
40951;SDS011;26682;51.660;19.338;2024-03-22T01:23:24;51.85;;;37.22;;
40951;SDS011;26682;51.660;19.338;2024-03-22T01:26:05;48.85;;;36.20;;
40951;SDS011;26682;51.660;19.338;2024-03-22T01:28:46;53.65;;;35.67;;
40951;SDS011;26682;51.660;19.338;2024-03-22T01:31:28;50.05;;;35.08;;
40951;SDS011;26682;51.660;19.338;2024-03-22T01:34:09;44.97;;;34.13;;
40951;SDS011;26682;51.660;19.338;2024-03-22T01:36:51;45.42;;;33.58;;
40951;SDS011;26682;51.660;19.338;2024-03-22T01:39:33;45.25;;;33.85;;
40951;SDS011;26682;51.660;19.338;2024-03-22T01:42:14;41.67;;;31.25;;
40951;SDS011;26682;51.660;19.338;2024-03-22T01:44:55;47.22;;;33.72;;
40951;SDS011;26682;51.660;19.338;2024-03-22T01:47:36;46.53;;;33.70;;
40951;SDS011;26682;51.660;19.338;2024-03-22T01:50:18;44.28;;;32.47;;
40951;SDS011;26682;51.660;19.338;2024-03-22T01:53:00;44.78;;;32.65;;
40951;SDS011;26682;51.660;19.338;2024-03-22T01:55:42;43.67;;;32.30;;
40951;SDS011;26682;51.660;19.338;2024-03-22T01:58:23;42.67;;;31.10;;
40951;SDS011;26682;51.660;19.338;2024-03-22T02:01:05;39.70;;;30.10;;
40951;SDS011;26682;51.660;19.338;2024-03-22T02:03:46;41.53;;;29.00;;
40951;SDS011;26682;51.660;19.338;2024-03-22T02:06:28;38.53;;;28.52;;
40951;SDS011;26682;51.660;19.338;2024-03-22T02:09:10;39.00;;;27.77;;
40951;SDS011;26682;51.660;19.338;2024-03-22T02:11:51;37.00;;;27.38;;
40951;SDS011;26682;51.660;19.338;2024-03-22T02:14:33;32.28;;;24.60;;
40951;SDS011;26682;51.660;19.338;2024-03-22T02:17:14;33.55;;;24.33;;
40951;SDS011;26682;51.660;19.338;2024-03-22T02:19:55;32.80;;;23.20;;
40951;SDS011;26682;51.660;19.338;2024-03-22T02:22:37;29.05;;;22.92;;
40951;SDS011;26682;51.660;19.338;2024-03-22T02:25:18;32.47;;;22.88;;
40951;SDS011;26682;51.660;19.338;2024-03-22T02:28:00;31.20;;;22.63;;
40951;SDS011;26682;51.660;19.338;2024-03-22T02:30:42;32.35;;;22.17;;
40951;SDS011;26682;51.660;19.338;2024-03-22T02:33:24;28.80;;;22.05;;
40951;SDS011;26682;51.660;19.338;2024-03-22T02:36:05;27.48;;;21.83;;
40951;SDS011;26682;51.660;19.338;2024-03-22T02:38:47;28.45;;;21.58;;
40951;SDS011;26682;51.660;19.338;2024-03-22T02:41:28;28.58;;;21.67;;
40951;SDS011;26682;51.660;19.338;2024-03-22T02:44:09;27.52;;;21.10;;
40951;SDS011;26682;51.660;19.338;2024-03-22T02:46:51;28.75;;;20.65;;
40951;SDS011;26682;51.660;19.338;2024-03-22T02:49:32;28.30;;;20.80;;
40951;SDS011;26682;51.660;19.338;2024-03-22T02:52:13;25.70;;;20.90;;
40951;SDS011;26682;51.660;19.338;2024-03-22T02:54:55;25.33;;;20.27;;
40951;SDS011;26682;51.660;19.338;2024-03-22T02:57:36;25.70;;;20.20;;
40951;SDS011;26682;51.660;19.338;2024-03-22T03:00:17;26.38;;;20.70;;
40951;SDS011;26682;51.660;19.338;2024-03-22T03:02:59;27.02;;;19.00;;
40951;SDS011;26682;51.660;19.338;2024-03-22T03:05:41;25.60;;;20.00;;
40951;SDS011;26682;51.660;19.338;2024-03-22T03:08:23;24.75;;;19.20;;
40951;SDS011;26682;51.660;19.338;2024-03-22T03:11:04;21.13;;;17.77;;
40951;SDS011;26682;51.660;19.338;2024-03-22T03:13:45;25.55;;;17.80;;
40951;SDS011;26682;51.660;19.338;2024-03-22T03:16:27;22.80;;;16.45;;
40951;SDS011;26682;51.660;19.338;2024-03-22T03:19:08;26.27;;;17.05;;
40951;SDS011;26682;51.660;19.338;2024-03-22T03:21:49;22.38;;;16.55;;
40951;SDS011;26682;51.660;19.338;2024-03-22T03:24:30;20.05;;;15.82;;
40951;SDS011;26682;51.660;19.338;2024-03-22T03:27:12;21.08;;;16.73;;
40951;SDS011;26682;51.660;19.338;2024-03-22T03:29:53;18.98;;;15.15;;
40951;SDS011;26682;51.660;19.338;2024-03-22T03:32:35;16.55;;;14.15;;
40951;SDS011;26682;51.660;19.338;2024-03-22T03:35:16;18.95;;;15.32;;
40951;SDS011;26682;51.660;19.338;2024-03-22T03:37:59;22.02;;;14.75;;
40951;SDS011;26682;51.660;19.338;2024-03-22T03:40:41;19.83;;;14.02;;
40951;SDS011;26682;51.660;19.338;2024-03-22T03:43:22;18.48;;;14.30;;
40951;SDS011;26682;51.660;19.338;2024-03-22T03:46:03;19.48;;;14.45;;
40951;SDS011;26682;51.660;19.338;2024-03-22T03:48:45;19.73;;;14.80;;
40951;SDS011;26682;51.660;19.338;2024-03-22T03:51:26;22.20;;;16.65;;
40951;SDS011;26682;51.660;19.338;2024-03-22T03:54:08;24.10;;;15.90;;
40951;SDS011;26682;51.660;19.338;2024-03-22T03:56:49;22.95;;;16.42;;
40951;SDS011;26682;51.660;19.338;2024-03-22T03:59:30;21.90;;;16.58;;
40951;SDS011;26682;51.660;19.338;2024-03-22T04:02:11;22.00;;;15.70;;
40951;SDS011;26682;51.660;19.338;2024-03-22T04:04:53;24.65;;;16.85;;
40951;SDS011;26682;51.660;19.338;2024-03-22T04:07:34;21.90;;;15.95;;
40951;SDS011;26682;51.660;19.338;2024-03-22T04:10:15;23.20;;;16.65;;
40951;SDS011;26682;51.660;19.338;2024-03-22T04:12:57;22.45;;;16.25;;
40951;SDS011;26682;51.660;19.338;2024-03-22T04:15:39;22.13;;;15.50;;
40951;SDS011;26682;51.660;19.338;2024-03-22T04:18:20;26.88;;;15.88;;
40951;SDS011;26682;51.660;19.338;2024-03-22T04:21:01;29.55;;;16.65;;
40951;SDS011;26682;51.660;19.338;2024-03-22T04:23:43;32.90;;;18.27;;
40951;SDS011;26682;51.660;19.338;2024-03-22T04:26:24;29.88;;;17.60;;
40951;SDS011;26682;51.660;19.338;2024-03-22T04:29:05;35.75;;;18.55;;
40951;SDS011;26682;51.660;19.338;2024-03-22T04:31:47;26.85;;;16.10;;
40951;SDS011;26682;51.660;19.338;2024-03-22T04:34:28;28.23;;;17.52;;
40951;SDS011;26682;51.660;19.338;2024-03-22T04:37:10;27.40;;;17.02;;
40951;SDS011;26682;51.660;19.338;2024-03-22T04:39:54;22.80;;;14.68;;
40951;SDS011;26682;51.660;19.338;2024-03-22T04:42:36;26.75;;;15.68;;
40951;SDS011;26682;51.660;19.338;2024-03-22T04:45:17;30.00;;;17.17;;
40951;SDS011;26682;51.660;19.338;2024-03-22T04:47:58;27.67;;;17.02;;
40951;SDS011;26682;51.660;19.338;2024-03-22T04:50:41;38.10;;;19.25;;
40951;SDS011;26682;51.660;19.338;2024-03-22T04:53:23;40.33;;;19.00;;
40951;SDS011;26682;51.660;19.338;2024-03-22T04:56:04;37.65;;;17.58;;
40951;SDS011;26682;51.660;19.338;2024-03-22T04:58:46;37.30;;;16.73;;
40951;SDS011;26682;51.660;19.338;2024-03-22T05:01:28;24.77;;;15.68;;
40951;SDS011;26682;51.660;19.338;2024-03-22T05:04:10;24.05;;;15.45;;
40951;SDS011;26682;51.660;19.338;2024-03-22T05:06:51;24.08;;;16.02;;
40951;SDS011;26682;51.660;19.338;2024-03-22T05:09:33;28.20;;;15.55;;
40951;SDS011;26682;51.660;19.338;2024-03-22T05:12:14;24.85;;;15.90;;
40951;SDS011;26682;51.660;19.338;2024-03-22T05:14:55;23.52;;;15.40;;
40951;SDS011;26682;51.660;19.338;2024-03-22T05:17:37;24.48;;;15.32;;
40951;SDS011;26682;51.660;19.338;2024-03-22T05:20:20;23.48;;;15.52;;
40951;SDS011;26682;51.660;19.338;2024-03-22T05:23:01;22.10;;;15.48;;
40951;SDS011;26682;51.660;19.338;2024-03-22T05:25:44;25.90;;;17.30;;
40951;SDS011;26682;51.660;19.338;2024-03-22T05:28:25;23.70;;;16.17;;
40951;SDS011;26682;51.660;19.338;2024-03-22T05:31:07;23.85;;;16.73;;
40951;SDS011;26682;51.660;19.338;2024-03-22T05:33:48;26.95;;;18.95;;
40951;SDS011;26682;51.660;19.338;2024-03-22T05:36:29;27.33;;;19.20;;
40951;SDS011;26682;51.660;19.338;2024-03-22T05:39:11;20.77;;;14.00;;
40951;SDS011;26682;51.660;19.338;2024-03-22T05:41:53;34.03;;;27.55;;
40951;SDS011;26682;51.660;19.338;2024-03-22T05:44:34;27.15;;;19.25;;
40951;SDS011;26682;51.660;19.338;2024-03-22T05:47:16;25.23;;;15.13;;
40951;SDS011;26682;51.660;19.338;2024-03-22T05:50:00;23.50;;;13.80;;
40951;SDS011;26682;51.660;19.338;2024-03-22T05:52:42;21.17;;;14.40;;
40951;SDS011;26682;51.660;19.338;2024-03-22T05:55:23;17.83;;;13.00;;
40951;SDS011;26682;51.660;19.338;2024-03-22T05:58:08;20.50;;;15.05;;
40951;SDS011;26682;51.660;19.338;2024-03-22T06:00:50;22.48;;;17.40;;
40951;SDS011;26682;51.660;19.338;2024-03-22T06:03:31;21.42;;;17.05;;
40951;SDS011;26682;51.660;19.338;2024-03-22T06:06:12;22.45;;;17.17;;
40951;SDS011;26682;51.660;19.338;2024-03-22T06:08:54;19.88;;;15.93;;
40951;SDS011;26682;51.660;19.338;2024-03-22T06:11:37;27.52;;;18.67;;
40951;SDS011;26682;51.660;19.338;2024-03-22T06:14:21;19.05;;;14.18;;
40951;SDS011;26682;51.660;19.338;2024-03-22T06:17:03;18.95;;;12.73;;
40951;SDS011;26682;51.660;19.338;2024-03-22T06:19:45;14.98;;;11.77;;
40951;SDS011;26682;51.660;19.338;2024-03-22T06:22:26;19.58;;;12.75;;
40951;SDS011;26682;51.660;19.338;2024-03-22T06:25:08;15.80;;;11.63;;
40951;SDS011;26682;51.660;19.338;2024-03-22T06:27:49;19.55;;;12.40;;
40951;SDS011;26682;51.660;19.338;2024-03-22T06:30:31;18.90;;;12.85;;
40951;SDS011;26682;51.660;19.338;2024-03-22T06:33:12;24.48;;;15.02;;
40951;SDS011;26682;51.660;19.338;2024-03-22T06:35:54;20.95;;;14.38;;
40951;SDS011;26682;51.660;19.338;2024-03-22T06:38:35;18.10;;;14.13;;
40951;SDS011;26682;51.660;19.338;2024-03-22T06:41:17;20.63;;;14.77;;
40951;SDS011;26682;51.660;19.338;2024-03-22T06:43:58;20.70;;;14.85;;
40951;SDS011;26682;51.660;19.338;2024-03-22T06:46:39;21.58;;;14.90;;
40951;SDS011;26682;51.660;19.338;2024-03-22T06:49:21;22.75;;;15.65;;
40951;SDS011;26682;51.660;19.338;2024-03-22T06:52:02;24.52;;;15.55;;
40951;SDS011;26682;51.660;19.338;2024-03-22T06:54:44;22.42;;;15.60;;
40951;SDS011;26682;51.660;19.338;2024-03-22T06:57:25;21.40;;;13.93;;
40951;SDS011;26682;51.660;19.338;2024-03-22T07:00:07;17.85;;;13.90;;
40951;SDS011;26682;51.660;19.338;2024-03-22T07:02:50;21.13;;;14.00;;
40951;SDS011;26682;51.660;19.338;2024-03-22T07:05:32;20.42;;;14.48;;
40951;SDS011;26682;51.660;19.338;2024-03-22T07:08:13;18.95;;;14.40;;
40951;SDS011;26682;51.660;19.338;2024-03-22T07:10:54;20.70;;;13.85;;
40951;SDS011;26682;51.660;19.338;2024-03-22T07:13:36;19.45;;;13.30;;
40951;SDS011;26682;51.660;19.338;2024-03-22T07:16:18;18.40;;;15.57;;
40951;SDS011;26682;51.660;19.338;2024-03-22T07:18:59;18.60;;;15.43;;
40951;SDS011;26682;51.660;19.338;2024-03-22T07:21:41;19.17;;;14.98;;
40951;SDS011;26682;51.660;19.338;2024-03-22T07:24:22;20.77;;;14.55;;
40951;SDS011;26682;51.660;19.338;2024-03-22T07:27:04;19.42;;;14.52;;
40951;SDS011;26682;51.660;19.338;2024-03-22T07:29:47;23.15;;;14.77;;
40951;SDS011;26682;51.660;19.338;2024-03-22T07:32:29;24.55;;;15.70;;
40951;SDS011;26682;51.660;19.338;2024-03-22T07:35:10;18.98;;;13.68;;
40951;SDS011;26682;51.660;19.338;2024-03-22T07:37:52;18.80;;;14.77;;
40951;SDS011;26682;51.660;19.338;2024-03-22T07:40:34;21.85;;;15.00;;
40951;SDS011;26682;51.660;19.338;2024-03-22T07:43:15;17.25;;;12.85;;
40951;SDS011;26682;51.660;19.338;2024-03-22T07:45:57;18.48;;;13.68;;
40951;SDS011;26682;51.660;19.338;2024-03-22T07:48:39;24.30;;;14.90;;
40951;SDS011;26682;51.660;19.338;2024-03-22T07:51:20;20.23;;;14.32;;
40951;SDS011;26682;51.660;19.338;2024-03-22T07:54:01;24.50;;;15.50;;
40951;SDS011;26682;51.660;19.338;2024-03-22T07:56:43;19.17;;;13.35;;
40951;SDS011;26682;51.660;19.338;2024-03-22T07:59:24;24.13;;;15.70;;
40951;SDS011;26682;51.660;19.338;2024-03-22T08:02:06;23.00;;;15.02;;
40951;SDS011;26682;51.660;19.338;2024-03-22T08:04:47;23.38;;;14.57;;
40951;SDS011;26682;51.660;19.338;2024-03-22T08:07:29;26.50;;;15.50;;
40951;SDS011;26682;51.660;19.338;2024-03-22T08:10:11;21.90;;;15.45;;
40951;SDS011;26682;51.660;19.338;2024-03-22T08:12:53;28.30;;;17.63;;
40951;SDS011;26682;51.660;19.338;2024-03-22T08:15:35;19.88;;;15.77;;
40951;SDS011;26682;51.660;19.338;2024-03-22T08:18:16;22.83;;;16.02;;
40951;SDS011;26682;51.660;19.338;2024-03-22T08:20:58;23.70;;;17.08;;
40951;SDS011;26682;51.660;19.338;2024-03-22T08:23:40;28.98;;;18.70;;
40951;SDS011;26682;51.660;19.338;2024-03-22T08:26:21;22.92;;;17.25;;
40951;SDS011;26682;51.660;19.338;2024-03-22T08:29:03;27.58;;;18.90;;
40951;SDS011;26682;51.660;19.338;2024-03-22T08:31:44;24.48;;;17.50;;
40951;SDS011;26682;51.660;19.338;2024-03-22T08:34:26;27.98;;;17.48;;
40951;SDS011;26682;51.660;19.338;2024-03-22T08:37:07;24.40;;;18.63;;
40951;SDS011;26682;51.660;19.338;2024-03-22T08:39:50;28.00;;;20.58;;
40951;SDS011;26682;51.660;19.338;2024-03-22T08:42:31;32.28;;;20.70;;
40951;SDS011;26682;51.660;19.338;2024-03-22T08:45:13;52.60;;;28.20;;
40951;SDS011;26682;51.660;19.338;2024-03-22T08:47:54;35.35;;;22.92;;
40951;SDS011;26682;51.660;19.338;2024-03-22T08:50:36;35.80;;;23.45;;
40951;SDS011;26682;51.660;19.338;2024-03-22T08:53:17;35.22;;;22.30;;
40951;SDS011;26682;51.660;19.338;2024-03-22T08:55:58;40.13;;;23.30;;
40951;SDS011;26682;51.660;19.338;2024-03-22T08:58:40;37.60;;;24.42;;
40951;SDS011;26682;51.660;19.338;2024-03-22T09:01:21;35.25;;;23.40;;
40951;SDS011;26682;51.660;19.338;2024-03-22T09:04:03;33.90;;;23.13;;
40951;SDS011;26682;51.660;19.338;2024-03-22T09:06:45;36.67;;;24.77;;
40951;SDS011;26682;51.660;19.338;2024-03-22T09:09:27;34.45;;;24.02;;
40951;SDS011;26682;51.660;19.338;2024-03-22T09:12:09;35.35;;;24.23;;
40951;SDS011;26682;51.660;19.338;2024-03-22T09:14:50;43.35;;;28.85;;
40951;SDS011;26682;51.660;19.338;2024-03-22T09:17:32;35.25;;;25.17;;
40951;SDS011;26682;51.660;19.338;2024-03-22T09:20:13;37.28;;;25.38;;
40951;SDS011;26682;51.660;19.338;2024-03-22T09:22:55;32.30;;;22.23;;
40951;SDS011;26682;51.660;19.338;2024-03-22T09:25:37;33.17;;;24.50;;
40951;SDS011;26682;51.660;19.338;2024-03-22T09:28:19;29.90;;;23.42;;
40951;SDS011;26682;51.660;19.338;2024-03-22T09:31:06;36.03;;;24.98;;
40951;SDS011;26682;51.660;19.338;2024-03-22T09:33:48;36.05;;;24.17;;
40951;SDS011;26682;51.660;19.338;2024-03-22T09:36:29;31.45;;;23.67;;
40951;SDS011;26682;51.660;19.338;2024-03-22T09:39:15;36.72;;;24.95;;
40951;SDS011;26682;51.660;19.338;2024-03-22T09:41:56;33.92;;;24.85;;
40951;SDS011;26682;51.660;19.338;2024-03-22T09:44:38;29.77;;;22.95;;
40951;SDS011;26682;51.660;19.338;2024-03-22T09:47:22;29.98;;;22.65;;
40951;SDS011;26682;51.660;19.338;2024-03-22T09:50:06;30.48;;;21.35;;
40951;SDS011;26682;51.660;19.338;2024-03-22T09:52:49;22.10;;;18.10;;
40951;SDS011;26682;51.660;19.338;2024-03-22T09:55:33;18.20;;;15.30;;
40951;SDS011;26682;51.660;19.338;2024-03-22T09:58:16;24.05;;;16.00;;
40951;SDS011;26682;51.660;19.338;2024-03-22T10:01:00;19.23;;;15.32;;
40951;SDS011;26682;51.660;19.338;2024-03-22T10:03:42;19.52;;;15.85;;
40951;SDS011;26682;51.660;19.338;2024-03-22T10:06:24;21.20;;;15.30;;
40951;SDS011;26682;51.660;19.338;2024-03-22T10:09:06;20.90;;;14.48;;
40951;SDS011;26682;51.660;19.338;2024-03-22T10:11:49;20.27;;;14.50;;
40951;SDS011;26682;51.660;19.338;2024-03-22T10:14:30;22.67;;;16.38;;
40951;SDS011;26682;51.660;19.338;2024-03-22T10:17:13;24.00;;;15.13;;
40951;SDS011;26682;51.660;19.338;2024-03-22T10:19:54;26.52;;;14.05;;
40951;SDS011;26682;51.660;19.338;2024-03-22T10:22:36;19.45;;;14.75;;
40951;SDS011;26682;51.660;19.338;2024-03-22T10:25:17;43.03;;;16.20;;
40951;SDS011;26682;51.660;19.338;2024-03-22T10:27:58;18.00;;;14.60;;
40951;SDS011;26682;51.660;19.338;2024-03-22T10:30:40;19.27;;;15.45;;
40951;SDS011;26682;51.660;19.338;2024-03-22T10:33:22;19.83;;;15.75;;
40951;SDS011;26682;51.660;19.338;2024-03-22T10:36:04;22.17;;;16.60;;
40951;SDS011;26682;51.660;19.338;2024-03-22T10:38:46;22.20;;;16.30;;
40951;SDS011;26682;51.660;19.338;2024-03-22T10:41:32;22.33;;;17.52;;
40951;SDS011;26682;51.660;19.338;2024-03-22T10:44:13;22.67;;;17.70;;
40951;SDS011;26682;51.660;19.338;2024-03-22T10:46:55;22.85;;;19.25;;
40951;SDS011;26682;51.660;19.338;2024-03-22T10:49:42;24.13;;;18.73;;
40951;SDS011;26682;51.660;19.338;2024-03-22T10:52:26;22.50;;;17.98;;
40951;SDS011;26682;51.660;19.338;2024-03-22T10:55:10;22.85;;;17.30;;
40951;SDS011;26682;51.660;19.338;2024-03-22T10:57:57;20.23;;;16.38;;
40951;SDS011;26682;51.660;19.338;2024-03-22T11:00:41;21.80;;;17.25;;
40951;SDS011;26682;51.660;19.338;2024-03-22T11:03:24;23.65;;;17.98;;
40951;SDS011;26682;51.660;19.338;2024-03-22T11:06:07;22.25;;;17.88;;
40951;SDS011;26682;51.660;19.338;2024-03-22T11:08:49;30.63;;;18.20;;
40951;SDS011;26682;51.660;19.338;2024-03-22T11:11:32;24.45;;;18.58;;
40951;SDS011;26682;51.660;19.338;2024-03-22T11:14:18;21.75;;;17.98;;
40951;SDS011;26682;51.660;19.338;2024-03-22T11:17:01;22.33;;;18.08;;
40951;SDS011;26682;51.660;19.338;2024-03-22T11:19:42;30.45;;;19.80;;
40951;SDS011;26682;51.660;19.338;2024-03-22T11:22:25;26.25;;;19.70;;
40951;SDS011;26682;51.660;19.338;2024-03-22T11:25:07;26.05;;;19.17;;
40951;SDS011;26682;51.660;19.338;2024-03-22T11:27:49;26.98;;;20.00;;
40951;SDS011;26682;51.660;19.338;2024-03-22T11:30:30;31.55;;;19.63;;
40951;SDS011;26682;51.660;19.338;2024-03-22T11:33:13;24.25;;;18.52;;
40951;SDS011;26682;51.660;19.338;2024-03-22T11:35:57;24.75;;;17.63;;
40951;SDS011;26682;51.660;19.338;2024-03-22T11:38:40;19.40;;;15.88;;
40951;SDS011;26682;51.660;19.338;2024-03-22T11:41:26;24.70;;;16.88;;
40951;SDS011;26682;51.660;19.338;2024-03-22T11:44:09;26.83;;;21.50;;
40951;SDS011;26682;51.660;19.338;2024-03-22T11:46:52;20.65;;;17.00;;
40951;SDS011;26682;51.660;19.338;2024-03-22T11:49:34;27.98;;;19.27;;
40951;SDS011;26682;51.660;19.338;2024-03-22T11:52:15;20.10;;;14.88;;
40951;SDS011;26682;51.660;19.338;2024-03-22T11:54:57;22.58;;;15.77;;
40951;SDS011;26682;51.660;19.338;2024-03-22T11:57:39;18.70;;;14.98;;
40951;SDS011;26682;51.660;19.338;2024-03-22T12:00:21;16.95;;;13.50;;
40951;SDS011;26682;51.660;19.338;2024-03-22T12:03:04;19.13;;;12.63;;
40951;SDS011;26682;51.660;19.338;2024-03-22T12:05:47;24.33;;;11.60;;
40951;SDS011;26682;51.660;19.338;2024-03-22T12:08:31;14.18;;;11.63;;
40951;SDS011;26682;51.660;19.338;2024-03-22T12:11:13;15.85;;;11.32;;
40951;SDS011;26682;51.660;19.338;2024-03-22T12:13:54;15.70;;;11.75;;
40951;SDS011;26682;51.660;19.338;2024-03-22T12:16:36;16.65;;;12.73;;
40951;SDS011;26682;51.660;19.338;2024-03-22T12:19:17;13.27;;;11.00;;
40951;SDS011;26682;51.660;19.338;2024-03-22T12:21:59;13.60;;;11.63;;
40951;SDS011;26682;51.660;19.338;2024-03-22T12:24:40;14.45;;;11.30;;
40951;SDS011;26682;51.660;19.338;2024-03-22T12:27:23;13.55;;;11.63;;
40951;SDS011;26682;51.660;19.338;2024-03-22T12:30:04;13.98;;;11.50;;
40951;SDS011;26682;51.660;19.338;2024-03-22T12:32:47;15.20;;;11.48;;
40951;SDS011;26682;51.660;19.338;2024-03-22T12:35:28;14.98;;;11.30;;
40951;SDS011;26682;51.660;19.338;2024-03-22T12:38:13;20.08;;;12.98;;
40951;SDS011;26682;51.660;19.338;2024-03-22T12:40:55;13.98;;;10.85;;
40951;SDS011;26682;51.660;19.338;2024-03-22T12:43:36;21.42;;;11.18;;
40951;SDS011;26682;51.660;19.338;2024-03-22T12:46:17;15.75;;;11.35;;
40951;SDS011;26682;51.660;19.338;2024-03-22T12:48:59;14.27;;;11.85;;
40951;SDS011;26682;51.660;19.338;2024-03-22T12:51:40;17.00;;;11.48;;
40951;SDS011;26682;51.660;19.338;2024-03-22T12:54:23;17.00;;;12.05;;
40951;SDS011;26682;51.660;19.338;2024-03-22T12:57:06;13.60;;;11.35;;
40951;SDS011;26682;51.660;19.338;2024-03-22T12:59:47;15.43;;;11.45;;
40951;SDS011;26682;51.660;19.338;2024-03-22T13:02:28;16.40;;;12.27;;
40951;SDS011;26682;51.660;19.338;2024-03-22T13:05:10;14.50;;;12.32;;
40951;SDS011;26682;51.660;19.338;2024-03-22T13:07:51;16.88;;;11.77;;
40951;SDS011;26682;51.660;19.338;2024-03-22T13:10:33;16.45;;;13.20;;
40951;SDS011;26682;51.660;19.338;2024-03-22T13:13:14;16.10;;;13.73;;
40951;SDS011;26682;51.660;19.338;2024-03-22T13:15:58;14.75;;;12.35;;
40951;SDS011;26682;51.660;19.338;2024-03-22T13:18:39;19.38;;;12.45;;
40951;SDS011;26682;51.660;19.338;2024-03-22T13:21:21;17.40;;;12.65;;
40951;SDS011;26682;51.660;19.338;2024-03-22T13:24:02;16.45;;;12.52;;
40951;SDS011;26682;51.660;19.338;2024-03-22T13:26:44;15.25;;;12.43;;
40951;SDS011;26682;51.660;19.338;2024-03-22T13:29:25;15.90;;;13.10;;
40951;SDS011;26682;51.660;19.338;2024-03-22T13:32:08;16.83;;;13.40;;
40951;SDS011;26682;51.660;19.338;2024-03-22T13:34:49;19.92;;;16.08;;
40951;SDS011;26682;51.660;19.338;2024-03-22T13:37:31;20.38;;;15.25;;
40951;SDS011;26682;51.660;19.338;2024-03-22T13:40:13;17.98;;;13.48;;
40951;SDS011;26682;51.660;19.338;2024-03-22T13:42:55;20.75;;;13.68;;
40951;SDS011;26682;51.660;19.338;2024-03-22T13:45:41;17.50;;;13.80;;
40951;SDS011;26682;51.660;19.338;2024-03-22T13:48:24;20.30;;;14.32;;
40951;SDS011;26682;51.660;19.338;2024-03-22T13:51:05;17.98;;;15.00;;
40951;SDS011;26682;51.660;19.338;2024-03-22T13:53:47;17.65;;;15.32;;
40951;SDS011;26682;51.660;19.338;2024-03-22T13:56:28;18.15;;;15.23;;
40951;SDS011;26682;51.660;19.338;2024-03-22T13:59:10;18.13;;;14.65;;
40951;SDS011;26682;51.660;19.338;2024-03-22T14:01:51;17.40;;;14.45;;
40951;SDS011;26682;51.660;19.338;2024-03-22T14:04:34;19.42;;;16.42;;
40951;SDS011;26682;51.660;19.338;2024-03-22T14:07:16;21.45;;;17.10;;
40951;SDS011;26682;51.660;19.338;2024-03-22T14:09:57;24.65;;;18.20;;
40951;SDS011;26682;51.660;19.338;2024-03-22T14:12:38;24.17;;;20.40;;
40951;SDS011;26682;51.660;19.338;2024-03-22T14:15:20;23.77;;;18.75;;
40951;SDS011;26682;51.660;19.338;2024-03-22T14:18:01;30.83;;;24.08;;
40951;SDS011;26682;51.660;19.338;2024-03-22T14:20:44;31.95;;;24.83;;
40951;SDS011;26682;51.660;19.338;2024-03-22T14:23:25;33.10;;;24.17;;
40951;SDS011;26682;51.660;19.338;2024-03-22T14:26:06;33.63;;;28.48;;
40951;SDS011;26682;51.660;19.338;2024-03-22T14:28:48;37.97;;;27.70;;
40951;SDS011;26682;51.660;19.338;2024-03-22T14:31:31;30.67;;;22.40;;
40951;SDS011;26682;51.660;19.338;2024-03-22T14:34:12;33.10;;;24.63;;
40951;SDS011;26682;51.660;19.338;2024-03-22T14:36:53;37.00;;;28.67;;
40951;SDS011;26682;51.660;19.338;2024-03-22T14:39:34;63.40;;;45.05;;
40951;SDS011;26682;51.660;19.338;2024-03-22T14:42:16;67.38;;;43.22;;
40951;SDS011;26682;51.660;19.338;2024-03-22T14:44:57;39.70;;;31.17;;
40951;SDS011;26682;51.660;19.338;2024-03-22T14:47:39;30.20;;;22.20;;
40951;SDS011;26682;51.660;19.338;2024-03-22T14:50:20;33.97;;;26.50;;
40951;SDS011;26682;51.660;19.338;2024-03-22T14:53:04;34.85;;;28.80;;
40951;SDS011;26682;51.660;19.338;2024-03-22T14:55:58;34.33;;;25.70;;
40951;SDS011;26682;51.660;19.338;2024-03-22T14:58:44;38.47;;;30.48;;
40951;SDS011;26682;51.660;19.338;2024-03-22T15:01:26;37.10;;;29.25;;
40951;SDS011;26682;51.660;19.338;2024-03-22T15:04:07;30.27;;;22.77;;
40951;SDS011;26682;51.660;19.338;2024-03-22T15:06:49;39.05;;;29.33;;
40951;SDS011;26682;51.660;19.338;2024-03-22T15:09:31;55.13;;;34.75;;
40951;SDS011;26682;51.660;19.338;2024-03-22T15:12:13;36.38;;;22.35;;
40951;SDS011;26682;51.660;19.338;2024-03-22T15:14:55;35.00;;;20.88;;
40951;SDS011;26682;51.660;19.338;2024-03-22T15:17:36;37.35;;;22.42;;
40951;SDS011;26682;51.660;19.338;2024-03-22T15:20:18;30.40;;;20.65;;
40951;SDS011;26682;51.660;19.338;2024-03-22T15:22:59;34.10;;;21.35;;
40951;SDS011;26682;51.660;19.338;2024-03-22T15:25:41;35.60;;;22.65;;
40951;SDS011;26682;51.660;19.338;2024-03-22T15:28:23;34.70;;;20.48;;
40951;SDS011;26682;51.660;19.338;2024-03-22T15:31:04;32.60;;;20.60;;
40951;SDS011;26682;51.660;19.338;2024-03-22T15:33:45;32.72;;;21.20;;